Terminal Aerodrome Forecast
Issued by NWS Buffalo, NY

Home | Current Version | Previous Version | Text Only | Print | Product List | Glossary On
Versions: 1 2 3 4 5 6 7 8 9 10 11 12 13 14 15 16 17 18 19 20 21 22 23 24 25 26 27 28 29
000
FTUS41 KBUF 062300
TAFBUF
TAF
KBUF 062335Z 0700/0724 22012KT P6SM FEW130 OVC250
     FM070100 22010KT P6SM BKN120
     FM070900 23015KT P6SM OVC200
     FM071200 24015KT P6SM OVC020
     FM071400 24015G25KT P6SM -SN OVC020
     FM071800 23014KT 4SM -SN OVC020
     FM071900 23013G26KT 2SM -SHSN OVC020
     FM072100 23012KT 2SM -SHSN OVC020
     FM072200 23011G23KT 2SM -SHSN OVC020=

USA.gov is the U.S. government's official web portal to all federal, state and local government web resources and services.